sensor_id;sensor_type;location;lat;lon;timestamp;pressure;altitude;pressure_sealevel;temperature;humidity
48652;BME280;34442;52.362;-1.302;2024-01-30T00:01:37;100449.34;;;12.64;100.00
48652;BME280;34442;52.362;-1.302;2024-01-30T00:04:02;100460.53;;;12.61;100.00
48652;BME280;34442;52.362;-1.302;2024-01-30T00:06:28;100449.53;;;12.62;100.00
48652;BME280;34442;52.362;-1.302;2024-01-30T00:08:54;100455.72;;;12.70;100.00
48652;BME280;34442;52.362;-1.302;2024-01-30T00:11:19;100467.75;;;12.67;100.00
48652;BME280;34442;52.362;-1.302;2024-01-30T00:13:45;100460.03;;;12.77;100.00
48652;BME280;34442;52.362;-1.302;2024-01-30T00:16:24;100460.28;;;12.69;100.00
48652;BME280;34442;52.362;-1.302;2024-01-30T00:18:52;100463.38;;;12.73;100.00
48652;BME280;34442;52.362;-1.302;2024-01-30T00:21:18;100460.44;;;12.74;100.00
48652;BME280;34442;52.362;-1.302;2024-01-30T00:23:44;100459.84;;;12.72;100.00
48652;BME280;34442;52.362;-1.302;2024-01-30T00:26:09;100458.19;;;12.71;100.00
48652;BME280;34442;52.362;-1.302;2024-01-30T00:28:35;100462.16;;;12.69;100.00
48652;BME280;34442;52.362;-1.302;2024-01-30T00:31:01;100469.38;;;12.75;100.00
48652;BME280;34442;52.362;-1.302;2024-01-30T00:33:26;100464.69;;;12.63;100.00
48652;BME280;34442;52.362;-1.302;2024-01-30T00:35:54;100466.09;;;12.66;100.00
48652;BME280;34442;52.362;-1.302;2024-01-30T00:38:19;100468.63;;;12.61;100.00
48652;BME280;34442;52.362;-1.302;2024-01-30T00:40:48;100469.28;;;12.56;100.00
48652;BME280;34442;52.362;-1.302;2024-01-30T00:43:15;100465.38;;;12.52;100.00
48652;BME280;34442;52.362;-1.302;2024-01-30T00:45:41;100473.03;;;12.55;100.00
48652;BME280;34442;52.362;-1.302;2024-01-30T00:48:06;100465.97;;;12.54;100.00
48652;BME280;34442;52.362;-1.302;2024-01-30T00:50:32;100459.16;;;12.52;100.00
48652;BME280;34442;52.362;-1.302;2024-01-30T00:52:57;100465.97;;;12.54;100.00
48652;BME280;34442;52.362;-1.302;2024-01-30T00:55:23;100464.34;;;12.47;100.00
48652;BME280;34442;52.362;-1.302;2024-01-30T00:57:48;100464.00;;;12.43;100.00
48652;BME280;34442;52.362;-1.302;2024-01-30T01:00:14;100473.56;;;12.39;100.00
48652;BME280;34442;52.362;-1.302;2024-01-30T01:02:42;100461.56;;;12.28;100.00
48652;BME280;34442;52.362;-1.302;2024-01-30T01:05:08;100477.28;;;12.38;100.00
48652;BME280;34442;52.362;-1.302;2024-01-30T01:07:34;100482.31;;;12.28;100.00
48652;BME280;34442;52.362;-1.302;2024-01-30T01:09:59;100483.53;;;12.32;100.00
48652;BME280;34442;52.362;-1.302;2024-01-30T01:12:25;100484.13;;;12.34;100.00
48652;BME280;34442;52.362;-1.302;2024-01-30T01:14:50;100486.47;;;12.24;100.00
48652;BME280;34442;52.362;-1.302;2024-01-30T01:17:16;100479.84;;;12.26;100.00
48652;BME280;34442;52.362;-1.302;2024-01-30T01:19:41;100478.16;;;12.32;100.00
48652;BME280;34442;52.362;-1.302;2024-01-30T01:22:07;100485.00;;;12.34;100.00
48652;BME280;34442;52.362;-1.302;2024-01-30T01:24:32;100491.00;;;12.30;100.00
48652;BME280;34442;52.362;-1.302;2024-01-30T01:27:01;100486.84;;;12.34;100.00
48652;BME280;34442;52.362;-1.302;2024-01-30T01:29:26;100492.44;;;12.32;100.00
48652;BME280;34442;52.362;-1.302;2024-01-30T01:31:58;100487.94;;;12.26;100.00
48652;BME280;34442;52.362;-1.302;2024-01-30T01:34:23;100490.22;;;12.23;100.00
48652;BME280;34442;52.362;-1.302;2024-01-30T01:36:49;100485.25;;;12.26;100.00
48652;BME280;34442;52.362;-1.302;2024-01-30T01:39:15;100480.50;;;12.15;100.00
48652;BME280;34442;52.362;-1.302;2024-01-30T01:41:41;100477.78;;;12.22;100.00
48652;BME280;34442;52.362;-1.302;2024-01-30T01:44:07;100485.09;;;12.08;100.00
48652;BME280;34442;52.362;-1.302;2024-01-30T01:46:33;100481.13;;;12.17;100.00
48652;BME280;34442;52.362;-1.302;2024-01-30T01:49:00;100477.66;;;12.10;100.00
48652;BME280;34442;52.362;-1.302;2024-01-30T01:51:28;100477.41;;;12.11;100.00
48652;BME280;34442;52.362;-1.302;2024-01-30T01:53:55;100475.53;;;12.12;100.00
48652;BME280;34442;52.362;-1.302;2024-01-30T01:56:22;100481.59;;;12.07;100.00
48652;BME280;34442;52.362;-1.302;2024-01-30T01:58:49;100478.06;;;12.07;100.00
48652;BME280;34442;52.362;-1.302;2024-01-30T02:01:17;100478.25;;;12.05;100.00
48652;BME280;34442;52.362;-1.302;2024-01-30T02:03:44;100472.50;;;12.02;100.00
48652;BME280;34442;52.362;-1.302;2024-01-30T02:06:10;100471.88;;;12.00;100.00
48652;BME280;34442;52.362;-1.302;2024-01-30T02:08:37;100479.31;;;12.04;100.00
48652;BME280;34442;52.362;-1.302;2024-01-30T02:11:03;100469.19;;;12.00;100.00
48652;BME280;34442;52.362;-1.302;2024-01-30T02:13:29;100473.31;;;12.02;100.00
48652;BME280;34442;52.362;-1.302;2024-01-30T02:15:54;100467.09;;;12.02;100.00
48652;BME280;34442;52.362;-1.302;2024-01-30T02:18:20;100471.69;;;11.95;100.00
48652;BME280;34442;52.362;-1.302;2024-01-30T02:20:50;100478.31;;;11.92;100.00
48652;BME280;34442;52.362;-1.302;2024-01-30T02:23:19;100479.13;;;11.99;100.00
48652;BME280;34442;52.362;-1.302;2024-01-30T02:25:45;100482.88;;;11.98;100.00
48652;BME280;34442;52.362;-1.302;2024-01-30T02:28:12;100491.19;;;11.90;100.00
48652;BME280;34442;52.362;-1.302;2024-01-30T02:30:47;100491.19;;;11.83;100.00
48652;BME280;34442;52.362;-1.302;2024-01-30T02:33:13;100487.28;;;11.73;100.00
48652;BME280;34442;52.362;-1.302;2024-01-30T02:35:38;100491.19;;;11.77;100.00
48652;BME280;34442;52.362;-1.302;2024-01-30T02:38:04;100488.47;;;11.77;100.00
48652;BME280;34442;52.362;-1.302;2024-01-30T02:40:30;100492.03;;;11.84;100.00
48652;BME280;34442;52.362;-1.302;2024-01-30T02:42:57;100490.16;;;11.84;100.00
48652;BME280;34442;52.362;-1.302;2024-01-30T02:45:23;100492.00;;;11.90;100.00
48652;BME280;34442;52.362;-1.302;2024-01-30T02:47:48;100487.88;;;11.88;100.00
48652;BME280;34442;52.362;-1.302;2024-01-30T02:50:14;100489.13;;;11.85;100.00
48652;BME280;34442;52.362;-1.302;2024-01-30T02:52:40;100493.66;;;11.85;100.00
48652;BME280;34442;52.362;-1.302;2024-01-30T02:55:06;100486.00;;;11.82;100.00
48652;BME280;34442;52.362;-1.302;2024-01-30T02:57:31;100489.97;;;11.86;100.00
48652;BME280;34442;52.362;-1.302;2024-01-30T02:59:57;100482.69;;;11.86;100.00
48652;BME280;34442;52.362;-1.302;2024-01-30T03:02:22;100484.81;;;11.58;100.00
48652;BME280;34442;52.362;-1.302;2024-01-30T03:04:48;100495.00;;;11.49;100.00
48652;BME280;34442;52.362;-1.302;2024-01-30T03:07:13;100489.78;;;11.54;100.00
48652;BME280;34442;52.362;-1.302;2024-01-30T03:09:41;100496.22;;;11.47;100.00
48652;BME280;34442;52.362;-1.302;2024-01-30T03:12:06;100501.59;;;11.47;100.00
48652;BME280;34442;52.362;-1.302;2024-01-30T03:14:32;100505.72;;;11.56;100.00
48652;BME280;34442;52.362;-1.302;2024-01-30T03:16:58;100506.56;;;11.63;100.00
48652;BME280;34442;52.362;-1.302;2024-01-30T03:19:23;100502.81;;;11.71;100.00
48652;BME280;34442;52.362;-1.302;2024-01-30T03:21:49;100501.56;;;11.73;100.00
48652;BME280;34442;52.362;-1.302;2024-01-30T03:24:15;100494.09;;;11.75;100.00
48652;BME280;34442;52.362;-1.302;2024-01-30T03:26:40;100501.34;;;11.81;100.00
48652;BME280;34442;52.362;-1.302;2024-01-30T03:29:06;100504.25;;;11.73;100.00
48652;BME280;34442;52.362;-1.302;2024-01-30T03:31:31;100498.88;;;11.66;100.00
48652;BME280;34442;52.362;-1.302;2024-01-30T03:33:57;100504.91;;;11.68;100.00
48652;BME280;34442;52.362;-1.302;2024-01-30T03:36:22;100503.44;;;11.73;100.00
48652;BME280;34442;52.362;-1.302;2024-01-30T03:38:47;100497.41;;;11.71;100.00
48652;BME280;34442;52.362;-1.302;2024-01-30T03:41:13;100498.47;;;11.63;100.00
48652;BME280;34442;52.362;-1.302;2024-01-30T03:43:38;100498.28;;;11.58;100.00
48652;BME280;34442;52.362;-1.302;2024-01-30T03:46:04;100503.84;;;11.63;100.00
48652;BME280;34442;52.362;-1.302;2024-01-30T03:48:29;100510.91;;;11.57;100.00
48652;BME280;34442;52.362;-1.302;2024-01-30T03:50:55;100519.00;;;11.57;100.00
48652;BME280;34442;52.362;-1.302;2024-01-30T03:53:22;100516.28;;;11.64;100.00
48652;BME280;34442;52.362;-1.302;2024-01-30T03:55:47;100526.84;;;11.59;100.00
48652;BME280;34442;52.362;-1.302;2024-01-30T03:58:13;100526.88;;;11.52;100.00
48652;BME280;34442;52.362;-1.302;2024-01-30T04:00:38;100521.69;;;11.51;100.00
48652;BME280;34442;52.362;-1.302;2024-01-30T04:03:04;100534.34;;;11.24;100.00
48652;BME280;34442;52.362;-1.302;2024-01-30T04:05:29;100536.00;;;11.11;100.00
48652;BME280;34442;52.362;-1.302;2024-01-30T04:07:54;100535.78;;;11.13;100.00
48652;BME280;34442;52.362;-1.302;2024-01-30T04:10:20;100539.94;;;11.09;100.00
48652;BME280;34442;52.362;-1.302;2024-01-30T04:12:45;100540.75;;;11.09;100.00
48652;BME280;34442;52.362;-1.302;2024-01-30T04:15:11;100538.91;;;11.03;100.00
48652;BME280;34442;52.362;-1.302;2024-01-30T04:17:38;100537.03;;;10.90;100.00
48652;BME280;34442;52.362;-1.302;2024-01-30T04:20:05;100551.91;;;10.86;100.00
48652;BME280;34442;52.362;-1.302;2024-01-30T04:22:30;100583.72;;;10.76;100.00
48652;BME280;34442;52.362;-1.302;2024-01-30T04:24:56;100589.81;;;10.37;100.00
48652;BME280;34442;52.362;-1.302;2024-01-30T04:27:21;100585.06;;;10.04;100.00
48652;BME280;34442;52.362;-1.302;2024-01-30T04:29:47;100595.44;;;9.79;100.00
48652;BME280;34442;52.362;-1.302;2024-01-30T04:32:12;100598.91;;;9.73;100.00
48652;BME280;34442;52.362;-1.302;2024-01-30T04:34:37;100606.72;;;9.96;100.00
48652;BME280;34442;52.362;-1.302;2024-01-30T04:37:03;100616.34;;;9.62;100.00
48652;BME280;34442;52.362;-1.302;2024-01-30T04:39:28;100619.56;;;10.07;100.00
48652;BME280;34442;52.362;-1.302;2024-01-30T04:41:54;100630.03;;;9.95;100.00
48652;BME280;34442;52.362;-1.302;2024-01-30T04:44:19;100633.22;;;9.78;100.00
48652;BME280;34442;52.362;-1.302;2024-01-30T04:46:48;100637.38;;;9.80;100.00
48652;BME280;34442;52.362;-1.302;2024-01-30T04:49:13;100643.72;;;9.73;100.00
48652;BME280;34442;52.362;-1.302;2024-01-30T04:51:38;100644.59;;;9.80;100.00
48652;BME280;34442;52.362;-1.302;2024-01-30T04:54:04;100654.66;;;9.71;100.00
48652;BME280;34442;52.362;-1.302;2024-01-30T04:56:29;100644.41;;;9.81;100.00
48652;BME280;34442;52.362;-1.302;2024-01-30T04:58:56;100660.59;;;9.94;100.00
48652;BME280;34442;52.362;-1.302;2024-01-30T05:01:21;100659.31;;;9.90;100.00
48652;BME280;34442;52.362;-1.302;2024-01-30T05:03:46;100664.69;;;9.90;100.00
48652;BME280;34442;52.362;-1.302;2024-01-30T05:06:12;100674.03;;;9.94;100.00
48652;BME280;34442;52.362;-1.302;2024-01-30T05:08:37;100679.44;;;9.73;100.00
48652;BME280;34442;52.362;-1.302;2024-01-30T05:11:04;100686.66;;;9.73;100.00
48652;BME280;34442;52.362;-1.302;2024-01-30T05:13:31;100684.75;;;9.45;100.00
48652;BME280;34442;52.362;-1.302;2024-01-30T05:16:01;100696.97;;;9.48;100.00
48652;BME280;34442;52.362;-1.302;2024-01-30T05:18:26;100703.94;;;9.63;100.00
48652;BME280;34442;52.362;-1.302;2024-01-30T05:20:52;100702.78;;;9.73;100.00
48652;BME280;34442;52.362;-1.302;2024-01-30T05:23:17;100710.34;;;9.90;100.00
48652;BME280;34442;52.362;-1.302;2024-01-30T05:25:43;100713.06;;;9.69;100.00
48652;BME280;34442;52.362;-1.302;2024-01-30T05:28:08;100720.75;;;9.72;100.00
48652;BME280;34442;52.362;-1.302;2024-01-30T05:30:34;100727.03;;;9.86;100.00
48652;BME280;34442;52.362;-1.302;2024-01-30T05:32:59;100726.94;;;9.73;100.00
48652;BME280;34442;52.362;-1.302;2024-01-30T05:35:25;100735.63;;;9.75;100.00
48652;BME280;34442;52.362;-1.302;2024-01-30T05:37:50;100737.44;;;9.95;100.00
48652;BME280;34442;52.362;-1.302;2024-01-30T05:40:16;100736.78;;;9.65;100.00
48652;BME280;34442;52.362;-1.302;2024-01-30T05:42:42;100750.03;;;9.67;100.00
48652;BME280;34442;52.362;-1.302;2024-01-30T05:45:08;100757.41;;;9.65;100.00
48652;BME280;34442;52.362;-1.302;2024-01-30T05:47:36;100761.63;;;9.74;100.00
48652;BME280;34442;52.362;-1.302;2024-01-30T05:50:02;100762.53;;;9.60;100.00
48652;BME280;34442;52.362;-1.302;2024-01-30T05:52:28;100762.00;;;9.50;100.00
48652;BME280;34442;52.362;-1.302;2024-01-30T05:54:53;100766.91;;;9.46;100.00
48652;BME280;34442;52.362;-1.302;2024-01-30T05:57:19;100781.44;;;9.15;100.00
48652;BME280;34442;52.362;-1.302;2024-01-30T05:59:44;100789.63;;;9.29;100.00
48652;BME280;34442;52.362;-1.302;2024-01-30T06:02:10;100801.13;;;9.23;100.00
48652;BME280;34442;52.362;-1.302;2024-01-30T06:04:36;100810.47;;;9.12;100.00
48652;BME280;34442;52.362;-1.302;2024-01-30T06:07:02;100812.50;;;8.95;100.00
48652;BME280;34442;52.362;-1.302;2024-01-30T06:09:28;100818.91;;;8.94;100.00
48652;BME280;34442;52.362;-1.302;2024-01-30T06:11:54;100828.03;;;9.00;100.00
48652;BME280;34442;52.362;-1.302;2024-01-30T06:14:20;100836.81;;;9.23;100.00
48652;BME280;34442;52.362;-1.302;2024-01-30T06:16:45;100837.75;;;9.30;100.00
48652;BME280;34442;52.362;-1.302;2024-01-30T06:19:11;100835.34;;;9.20;100.00
48652;BME280;34442;52.362;-1.302;2024-01-30T06:21:36;100851.25;;;9.22;100.00
48652;BME280;34442;52.362;-1.302;2024-01-30T06:24:06;100867.47;;;9.14;100.00
48652;BME280;34442;52.362;-1.302;2024-01-30T06:26:32;100861.97;;;8.92;100.00
48652;BME280;34442;52.362;-1.302;2024-01-30T06:28:57;100871.22;;;9.05;100.00
48652;BME280;34442;52.362;-1.302;2024-01-30T06:31:23;100878.47;;;9.19;100.00
48652;BME280;34442;52.362;-1.302;2024-01-30T06:33:49;100886.03;;;9.30;100.00
48652;BME280;34442;52.362;-1.302;2024-01-30T06:36:15;100895.09;;;9.29;100.00
48652;BME280;34442;52.362;-1.302;2024-01-30T06:38:41;100890.94;;;9.12;100.00
48652;BME280;34442;52.362;-1.302;2024-01-30T06:41:07;100891.09;;;8.95;100.00
48652;BME280;34442;52.362;-1.302;2024-01-30T06:43:32;100902.66;;;8.81;100.00
48652;BME280;34442;52.362;-1.302;2024-01-30T06:45:57;100898.84;;;8.76;100.00
48652;BME280;34442;52.362;-1.302;2024-01-30T06:48:23;100916.81;;;8.90;100.00
48652;BME280;34442;52.362;-1.302;2024-01-30T06:50:48;100916.34;;;8.86;100.00
48652;BME280;34442;52.362;-1.302;2024-01-30T06:53:14;100916.41;;;8.78;100.00
48652;BME280;34442;52.362;-1.302;2024-01-30T06:55:40;100923.16;;;8.74;100.00
48652;BME280;34442;52.362;-1.302;2024-01-30T06:58:05;100933.25;;;8.87;100.00
48652;BME280;34442;52.362;-1.302;2024-01-30T07:00:31;100935.44;;;8.68;100.00
48652;BME280;34442;52.362;-1.302;2024-01-30T07:02:56;100936.00;;;8.79;100.00
48652;BME280;34442;52.362;-1.302;2024-01-30T07:05:22;100939.22;;;8.74;100.00
48652;BME280;34442;52.362;-1.302;2024-01-30T07:07:47;100936.97;;;8.63;100.00
48652;BME280;34442;52.362;-1.302;2024-01-30T07:10:13;100945.78;;;8.72;100.00
48652;BME280;34442;52.362;-1.302;2024-01-30T07:12:38;100947.81;;;8.47;100.00
48652;BME280;34442;52.362;-1.302;2024-01-30T07:15:05;100950.56;;;8.38;100.00
48652;BME280;34442;52.362;-1.302;2024-01-30T07:17:33;100969.03;;;8.56;100.00
48652;BME280;34442;52.362;-1.302;2024-01-30T07:19:59;100966.75;;;8.45;100.00
48652;BME280;34442;52.362;-1.302;2024-01-30T07:22:24;100974.84;;;8.37;100.00
48652;BME280;34442;52.362;-1.302;2024-01-30T07:24:50;100985.22;;;8.63;100.00
48652;BME280;34442;52.362;-1.302;2024-01-30T07:27:17;100987.03;;;8.48;100.00
48652;BME280;34442;52.362;-1.302;2024-01-30T07:29:43;100995.84;;;8.56;100.00
48652;BME280;34442;52.362;-1.302;2024-01-30T07:32:08;101007.53;;;8.55;100.00
48652;BME280;34442;52.362;-1.302;2024-01-30T07:34:34;101013.50;;;8.42;100.00
48652;BME280;34442;52.362;-1.302;2024-01-30T07:36:59;101012.69;;;8.34;100.00
48652;BME280;34442;52.362;-1.302;2024-01-30T07:39:25;101019.38;;;8.38;100.00
48652;BME280;34442;52.362;-1.302;2024-01-30T07:41:50;101021.03;;;8.70;100.00
48652;BME280;34442;52.362;-1.302;2024-01-30T07:44:16;101037.22;;;8.54;100.00
48652;BME280;34442;52.362;-1.302;2024-01-30T07:46:41;101029.81;;;8.56;100.00
48652;BME280;34442;52.362;-1.302;2024-01-30T07:49:06;101027.72;;;8.35;100.00
48652;BME280;34442;52.362;-1.302;2024-01-30T07:51:32;101032.38;;;8.49;100.00
48652;BME280;34442;52.362;-1.302;2024-01-30T07:53:58;101033.75;;;8.68;100.00
48652;BME280;34442;52.362;-1.302;2024-01-30T07:56:23;101040.03;;;8.60;100.00
48652;BME280;34442;52.362;-1.302;2024-01-30T07:58:49;101050.84;;;8.67;100.00
48652;BME280;34442;52.362;-1.302;2024-01-30T08:01:15;101058.25;;;8.65;100.00
48652;BME280;34442;52.362;-1.302;2024-01-30T08:03:40;101070.09;;;8.70;100.00
48652;BME280;34442;52.362;-1.302;2024-01-30T08:06:07;101070.34;;;8.61;100.00
48652;BME280;34442;52.362;-1.302;2024-01-30T08:08:32;101082.00;;;8.68;100.00
48652;BME280;34442;52.362;-1.302;2024-01-30T08:10:58;101083.81;;;8.44;100.00
48652;BME280;34442;52.362;-1.302;2024-01-30T08:13:23;101086.66;;;8.43;100.00
48652;BME280;34442;52.362;-1.302;2024-01-30T08:15:49;101086.47;;;8.53;100.00
48652;BME280;34442;52.362;-1.302;2024-01-30T08:18:14;101093.19;;;8.49;100.00
48652;BME280;34442;52.362;-1.302;2024-01-30T08:20:40;101092.50;;;8.47;100.00
48652;BME280;34442;52.362;-1.302;2024-01-30T08:23:05;101103.31;;;8.61;100.00
48652;BME280;34442;52.362;-1.302;2024-01-30T08:25:31;101111.75;;;8.50;100.00
48652;BME280;34442;52.362;-1.302;2024-01-30T08:27:57;101118.16;;;8.72;100.00
48652;BME280;34442;52.362;-1.302;2024-01-30T08:30:22;101121.72;;;8.73;100.00
48652;BME280;34442;52.362;-1.302;2024-01-30T08:32:48;101123.25;;;8.59;100.00
48652;BME280;34442;52.362;-1.302;2024-01-30T08:35:13;101120.13;;;8.47;100.00
48652;BME280;34442;52.362;-1.302;2024-01-30T08:37:40;101110.06;;;8.80;100.00
48652;BME280;34442;52.362;-1.302;2024-01-30T08:40:06;101127.59;;;8.60;100.00
48652;BME280;34442;52.362;-1.302;2024-01-30T08:42:33;101123.72;;;8.31;100.00
48652;BME280;34442;52.362;-1.302;2024-01-30T08:44:59;101141.09;;;8.43;100.00
48652;BME280;34442;52.362;-1.302;2024-01-30T08:47:25;101144.13;;;8.72;100.00
48652;BME280;34442;52.362;-1.302;2024-01-30T08:49:51;101147.31;;;8.75;100.00
48652;BME280;34442;52.362;-1.302;2024-01-30T08:52:17;101157.81;;;8.54;100.00
48652;BME280;34442;52.362;-1.302;2024-01-30T08:54:42;101158.38;;;8.72;100.00
48652;BME280;34442;52.362;-1.302;2024-01-30T08:57:08;101162.41;;;8.68;100.00
48652;BME280;34442;52.362;-1.302;2024-01-30T08:59:33;101173.09;;;8.76;100.00
48652;BME280;34442;52.362;-1.302;2024-01-30T09:01:59;101173.97;;;8.77;100.00
48652;BME280;34442;52.362;-1.302;2024-01-30T09:04:25;101173.53;;;8.57;100.00
48652;BME280;34442;52.362;-1.302;2024-01-30T09:06:50;101189.69;;;8.40;100.00
48652;BME280;34442;52.362;-1.302;2024-01-30T09:09:16;101198.06;;;8.37;100.00
48652;BME280;34442;52.362;-1.302;2024-01-30T09:11:43;101199.38;;;8.41;100.00
48652;BME280;34442;52.362;-1.302;2024-01-30T09:14:08;101204.09;;;8.39;100.00
48652;BME280;34442;52.362;-1.302;2024-01-30T09:16:34;101211.09;;;8.49;100.00
48652;BME280;34442;52.362;-1.302;2024-01-30T09:19:01;101213.63;;;8.26;100.00
48652;BME280;34442;52.362;-1.302;2024-01-30T09:21:27;101213.28;;;8.45;100.00
48652;BME280;34442;52.362;-1.302;2024-01-30T09:23:54;101224.47;;;8.57;100.00
48652;BME280;34442;52.362;-1.302;2024-01-30T09:26:20;101222.47;;;8.34;100.00
48652;BME280;34442;52.362;-1.302;2024-01-30T09:28:48;101236.69;;;8.35;100.00
48652;BME280;34442;52.362;-1.302;2024-01-30T09:31:16;101244.09;;;8.41;100.00
48652;BME280;34442;52.362;-1.302;2024-01-30T09:33:41;101242.72;;;8.53;100.00
48652;BME280;34442;52.362;-1.302;2024-01-30T09:36:09;101251.78;;;8.52;100.00
48652;BME280;34442;52.362;-1.302;2024-01-30T09:38:34;101259.09;;;8.66;100.00
48652;BME280;34442;52.362;-1.302;2024-01-30T09:41:03;101258.56;;;8.71;100.00
48652;BME280;34442;52.362;-1.302;2024-01-30T09:43:34;101263.66;;;8.58;100.00
48652;BME280;34442;52.362;-1.302;2024-01-30T09:46:02;101269.84;;;8.50;100.00
48652;BME280;34442;52.362;-1.302;2024-01-30T09:48:30;101270.97;;;8.64;100.00
48652;BME280;34442;52.362;-1.302;2024-01-30T09:50:56;101266.84;;;8.45;100.00
48652;BME280;34442;52.362;-1.302;2024-01-30T09:53:22;101274.06;;;8.44;100.00
48652;BME280;34442;52.362;-1.302;2024-01-30T09:55:50;101280.38;;;8.52;100.00
48652;BME280;34442;52.362;-1.302;2024-01-30T09:58:16;101291.56;;;8.72;100.00
48652;BME280;34442;52.362;-1.302;2024-01-30T10:00:42;101294.28;;;8.63;100.00
48652;BME280;34442;52.362;-1.302;2024-01-30T10:03:08;101295.78;;;8.66;100.00
48652;BME280;34442;52.362;-1.302;2024-01-30T10:05:38;101305.50;;;8.59;100.00
48652;BME280;34442;52.362;-1.302;2024-01-30T10:08:06;101302.00;;;8.58;100.00
48652;BME280;34442;52.362;-1.302;2024-01-30T10:10:33;101311.00;;;8.82;100.00
48652;BME280;34442;52.362;-1.302;2024-01-30T10:12:59;101313.69;;;8.74;100.00
48652;BME280;34442;52.362;-1.302;2024-01-30T10:15:25;101318.03;;;8.75;100.00
48652;BME280;34442;52.362;-1.302;2024-01-30T10:17:51;101328.81;;;8.50;100.00
48652;BME280;34442;52.362;-1.302;2024-01-30T10:20:16;101338.38;;;8.53;100.00
48652;BME280;34442;52.362;-1.302;2024-01-30T10:22:44;101340.34;;;8.51;100.00
48652;BME280;34442;52.362;-1.302;2024-01-30T10:25:11;101348.38;;;8.34;100.00
48652;BME280;34442;52.362;-1.302;2024-01-30T10:27:36;101353.91;;;8.25;100.00
48652;BME280;34442;52.362;-1.302;2024-01-30T10:30:04;101364.97;;;8.30;100.00
48652;BME280;34442;52.362;-1.302;2024-01-30T10:32:30;101370.53;;;8.44;100.00
48652;BME280;34442;52.362;-1.302;2024-01-30T10:34:56;101373.72;;;8.40;100.00
48652;BME280;34442;52.362;-1.302;2024-01-30T10:37:25;101373.22;;;8.44;100.00
48652;BME280;34442;52.362;-1.302;2024-01-30T10:39:53;101384.75;;;8.37;100.00
48652;BME280;34442;52.362;-1.302;2024-01-30T10:42:18;101389.28;;;8.61;100.00
48652;BME280;34442;52.362;-1.302;2024-01-30T10:47:13;101405.88;;;8.48;100.00
48652;BME280;34442;52.362;-1.302;2024-01-30T10:49:42;101408.53;;;8.56;100.00
48652;BME280;34442;52.362;-1.302;2024-01-30T10:52:09;101410.34;;;8.80;100.00
48652;BME280;34442;52.362;-1.302;2024-01-30T10:54:35;101417.94;;;8.60;100.00
48652;BME280;34442;52.362;-1.302;2024-01-30T10:57:02;101415.38;;;8.75;100.00
48652;BME280;34442;52.362;-1.302;2024-01-30T10:59:31;101426.28;;;8.57;100.00
48652;BME280;34442;52.362;-1.302;2024-01-30T11:02:01;101434.16;;;8.42;100.00
48652;BME280;34442;52.362;-1.302;2024-01-30T11:04:27;101436.84;;;8.51;100.00
48652;BME280;34442;52.362;-1.302;2024-01-30T11:06:52;101442.38;;;8.65;100.00
48652;BME280;34442;52.362;-1.302;2024-01-30T11:09:19;101450.22;;;8.51;100.00
48652;BME280;34442;52.362;-1.302;2024-01-30T11:11:58;101448.31;;;8.27;100.00
48652;BME280;34442;52.362;-1.302;2024-01-30T11:14:30;101452.25;;;8.40;100.00
48652;BME280;34442;52.362;-1.302;2024-01-30T11:16:59;101457.28;;;8.43;100.00
48652;BME280;34442;52.362;-1.302;2024-01-30T11:19:26;101461.28;;;7.89;100.00
48652;BME280;34442;52.362;-1.302;2024-01-30T11:21:54;101463.03;;;8.14;100.00
48652;BME280;34442;52.362;-1.302;2024-01-30T11:24:22;101464.38;;;8.10;100.00
48652;BME280;34442;52.362;-1.302;2024-01-30T11:26:49;101472.75;;;8.07;100.00
48652;BME280;34442;52.362;-1.302;2024-01-30T11:29:17;101472.63;;;8.33;100.00
48652;BME280;34442;52.362;-1.302;2024-01-30T11:31:55;101468.75;;;8.11;100.00
48652;BME280;34442;52.362;-1.302;2024-01-30T11:34:21;101473.31;;;8.27;100.00
48652;BME280;34442;52.362;-1.302;2024-01-30T11:36:59;101479.88;;;8.41;100.00
48652;BME280;34442;52.362;-1.302;2024-01-30T11:39:29;101480.06;;;8.39;100.00
48652;BME280;34442;52.362;-1.302;2024-01-30T11:41:55;101477.53;;;8.62;100.00
48652;BME280;34442;52.362;-1.302;2024-01-30T11:44:21;101478.91;;;8.75;100.00
48652;BME280;34442;52.362;-1.302;2024-01-30T11:46:51;101476.91;;;8.93;100.00
48652;BME280;34442;52.362;-1.302;2024-01-30T11:49:18;101484.25;;;8.83;100.00
48652;BME280;34442;52.362;-1.302;2024-01-30T11:51:47;101475.38;;;8.74;100.00
48652;BME280;34442;52.362;-1.302;2024-01-30T11:54:14;101471.03;;;8.81;100.00
48652;BME280;34442;52.362;-1.302;2024-01-30T11:56:40;101479.41;;;8.86;100.00
48652;BME280;34442;52.362;-1.302;2024-01-30T11:59:06;101470.84;;;8.91;100.00
48652;BME280;34442;52.362;-1.302;2024-01-30T12:01:31;101476.72;;;8.78;100.00
48652;BME280;34442;52.362;-1.302;2024-01-30T12:04:00;101483.94;;;8.78;100.00
48652;BME280;34442;52.362;-1.302;2024-01-30T12:06:26;101485.41;;;8.64;100.00
48652;BME280;34442;52.362;-1.302;2024-01-30T12:09:02;101500.13;;;8.52;100.00
48652;BME280;34442;52.362;-1.302;2024-01-30T12:11:29;101501.16;;;8.51;100.00
48652;BME280;34442;52.362;-1.302;2024-01-30T12:13:55;101503.00;;;8.58;100.00
48652;BME280;34442;52.362;-1.302;2024-01-30T12:16:21;101507.88;;;8.71;100.00
48652;BME280;34442;52.362;-1.302;2024-01-30T12:18:59;101500.16;;;8.76;100.00
48652;BME280;34442;52.362;-1.302;2024-01-30T12:21:25;101504.19;;;8.72;100.00
48652;BME280;34442;52.362;-1.302;2024-01-30T12:23:51;101509.19;;;8.51;100.00
48652;BME280;34442;52.362;-1.302;2024-01-30T12:26:17;101503.50;;;8.54;100.00
48652;BME280;34442;52.362;-1.302;2024-01-30T12:28:49;101513.72;;;8.58;100.00
48652;BME280;34442;52.362;-1.302;2024-01-30T12:31:15;101516.91;;;8.62;100.00
48652;BME280;34442;52.362;-1.302;2024-01-30T12:33:40;101516.75;;;8.72;100.00